sensor_id;sensor_type;location;lat;lon;timestamp;P1;durP1;ratioP1;P2;durP2;ratioP2
46407;SDS011;32110;45.724;21.276;2022-11-20T00:00:43;12.93;;;7.28;;
46407;SDS011;32110;45.724;21.276;2022-11-20T00:03:08;11.80;;;6.50;;
46407;SDS011;32110;45.724;21.276;2022-11-20T00:05:33;10.33;;;4.87;;
46407;SDS011;32110;45.724;21.276;2022-11-20T00:07:59;7.07;;;4.40;;
46407;SDS011;32110;45.724;21.276;2022-11-20T00:10:24;4.80;;;3.13;;
46407;SDS011;32110;45.724;21.276;2022-11-20T00:12:49;4.60;;;2.73;;
46407;SDS011;32110;45.724;21.276;2022-11-20T00:15:14;2.73;;;1.80;;
46407;SDS011;32110;45.724;21.276;2022-11-20T00:17:40;2.67;;;1.47;;
46407;SDS011;32110;45.724;21.276;2022-11-20T00:20:05;2.08;;;1.20;;
46407;SDS011;32110;45.724;21.276;2022-11-20T00:22:30;1.75;;;0.93;;
46407;SDS011;32110;45.724;21.276;2022-11-20T00:24:56;0.93;;;0.70;;
46407;SDS011;32110;45.724;21.276;2022-11-20T00:27:22;2.08;;;0.80;;
46407;SDS011;32110;45.724;21.276;2022-11-20T00:29:48;0.88;;;0.65;;
46407;SDS011;32110;45.724;21.276;2022-11-20T00:32:13;0.83;;;0.60;;
46407;SDS011;32110;45.724;21.276;2022-11-20T00:34:38;1.60;;;0.80;;
46407;SDS011;32110;45.724;21.276;2022-11-20T00:37:03;1.63;;;0.90;;
46407;SDS011;32110;45.724;21.276;2022-11-20T00:39:28;1.30;;;0.80;;
46407;SDS011;32110;45.724;21.276;2022-11-20T00:41:54;1.33;;;0.90;;
46407;SDS011;32110;45.724;21.276;2022-11-20T00:44:19;1.20;;;0.60;;
46407;SDS011;32110;45.724;21.276;2022-11-20T00:46:44;1.63;;;0.93;;
46407;SDS011;32110;45.724;21.276;2022-11-20T00:49:09;3.50;;;1.17;;
46407;SDS011;32110;45.724;21.276;2022-11-20T00:51:35;1.47;;;0.97;;
46407;SDS011;32110;45.724;21.276;2022-11-20T00:54:00;0.80;;;0.73;;
46407;SDS011;32110;45.724;21.276;2022-11-20T00:56:27;2.35;;;0.70;;
46407;SDS011;32110;45.724;21.276;2022-11-20T00:58:52;1.52;;;0.88;;
46407;SDS011;32110;45.724;21.276;2022-11-20T01:01:19;1.42;;;1.00;;
46407;SDS011;32110;45.724;21.276;2022-11-20T01:03:46;2.33;;;0.90;;
46407;SDS011;32110;45.724;21.276;2022-11-20T01:06:16;1.40;;;1.00;;
46407;SDS011;32110;45.724;21.276;2022-11-20T01:08:42;1.13;;;0.90;;
46407;SDS011;32110;45.724;21.276;2022-11-20T01:11:09;2.00;;;1.00;;
46407;SDS011;32110;45.724;21.276;2022-11-20T01:13:35;0.70;;;0.68;;
46407;SDS011;32110;45.724;21.276;2022-11-20T01:18:29;1.33;;;0.85;;
46407;SDS011;32110;45.724;21.276;2022-11-20T01:20:54;1.60;;;1.00;;
46407;SDS011;32110;45.724;21.276;2022-11-20T01:23:19;3.50;;;1.13;;
46407;SDS011;32110;45.724;21.276;2022-11-20T01:25:44;1.97;;;1.10;;
46407;SDS011;32110;45.724;21.276;2022-11-20T01:28:10;2.27;;;1.70;;
46407;SDS011;32110;45.724;21.276;2022-11-20T01:30:35;3.20;;;2.13;;
46407;SDS011;32110;45.724;21.276;2022-11-20T01:33:00;4.00;;;2.50;;
46407;SDS011;32110;45.724;21.276;2022-11-20T01:35:25;3.67;;;2.17;;
46407;SDS011;32110;45.724;21.276;2022-11-20T01:37:50;3.63;;;2.47;;
46407;SDS011;32110;45.724;21.276;2022-11-20T01:40:16;4.23;;;2.13;;
46407;SDS011;32110;45.724;21.276;2022-11-20T01:42:44;6.23;;;2.53;;
46407;SDS011;32110;45.724;21.276;2022-11-20T01:48:29;3.47;;;2.20;;
46407;SDS011;32110;45.724;21.276;2022-11-20T01:50:56;3.72;;;2.35;;
46407;SDS011;32110;45.724;21.276;2022-11-20T01:53:24;2.55;;;1.70;;
46407;SDS011;32110;45.724;21.276;2022-11-20T01:55:51;3.20;;;1.80;;
46407;SDS011;32110;45.724;21.276;2022-11-20T01:58:19;4.72;;;2.13;;
46407;SDS011;32110;45.724;21.276;2022-11-20T02:00:45;2.60;;;1.83;;
46407;SDS011;32110;45.724;21.276;2022-11-20T02:03:15;4.20;;;2.10;;
46407;SDS011;32110;45.724;21.276;2022-11-20T02:08:24;4.78;;;2.70;;
46407;SDS011;32110;45.724;21.276;2022-11-20T02:10:50;5.13;;;2.87;;
46407;SDS011;32110;45.724;21.276;2022-11-20T02:13:15;4.83;;;2.60;;
46407;SDS011;32110;45.724;21.276;2022-11-20T02:15:59;3.53;;;2.30;;
46407;SDS011;32110;45.724;21.276;2022-11-20T02:18:25;4.63;;;2.50;;
46407;SDS011;32110;45.724;21.276;2022-11-20T02:20:53;4.80;;;2.13;;
46407;SDS011;32110;45.724;21.276;2022-11-20T02:23:31;3.40;;;2.03;;
46407;SDS011;32110;45.724;21.276;2022-11-20T02:25:57;3.78;;;2.08;;
46407;SDS011;32110;45.724;21.276;2022-11-20T02:28:23;2.85;;;2.05;;
46407;SDS011;32110;45.724;21.276;2022-11-20T02:30:49;3.83;;;2.40;;
46407;SDS011;32110;45.724;21.276;2022-11-20T02:33:14;3.73;;;2.30;;
46407;SDS011;32110;45.724;21.276;2022-11-20T02:35:41;3.20;;;1.80;;
46407;SDS011;32110;45.724;21.276;2022-11-20T02:38:06;3.85;;;2.80;;
46407;SDS011;32110;45.724;21.276;2022-11-20T02:40:31;5.67;;;2.80;;
46407;SDS011;32110;45.724;21.276;2022-11-20T02:42:57;6.37;;;3.33;;
46407;SDS011;32110;45.724;21.276;2022-11-20T02:45:23;4.67;;;3.20;;
46407;SDS011;32110;45.724;21.276;2022-11-20T02:47:48;6.70;;;3.70;;
46407;SDS011;32110;45.724;21.276;2022-11-20T02:50:14;7.22;;;4.53;;
46407;SDS011;32110;45.724;21.276;2022-11-20T02:52:39;8.40;;;3.97;;
46407;SDS011;32110;45.724;21.276;2022-11-20T02:55:04;9.13;;;4.63;;
46407;SDS011;32110;45.724;21.276;2022-11-20T02:57:30;7.13;;;4.25;;
46407;SDS011;32110;45.724;21.276;2022-11-20T02:59:55;8.33;;;5.23;;
46407;SDS011;32110;45.724;21.276;2022-11-20T03:02:20;12.05;;;5.93;;
46407;SDS011;32110;45.724;21.276;2022-11-20T03:04:46;10.40;;;6.18;;
46407;SDS011;32110;45.724;21.276;2022-11-20T03:07:11;10.17;;;5.70;;
46407;SDS011;32110;45.724;21.276;2022-11-20T03:09:36;10.40;;;5.80;;
46407;SDS011;32110;45.724;21.276;2022-11-20T03:12:02;13.27;;;6.70;;
46407;SDS011;32110;45.724;21.276;2022-11-20T03:14:27;10.15;;;6.30;;
46407;SDS011;32110;45.724;21.276;2022-11-20T03:16:53;11.15;;;6.03;;
46407;SDS011;32110;45.724;21.276;2022-11-20T03:19:18;11.20;;;6.07;;
46407;SDS011;32110;45.724;21.276;2022-11-20T03:21:43;12.80;;;6.60;;
46407;SDS011;32110;45.724;21.276;2022-11-20T03:24:08;13.23;;;6.00;;
46407;SDS011;32110;45.724;21.276;2022-11-20T03:26:33;9.60;;;5.93;;
46407;SDS011;32110;45.724;21.276;2022-11-20T03:28:59;9.37;;;6.00;;
46407;SDS011;32110;45.724;21.276;2022-11-20T03:31:26;11.35;;;6.00;;
46407;SDS011;32110;45.724;21.276;2022-11-20T03:33:52;8.60;;;5.30;;
46407;SDS011;32110;45.724;21.276;2022-11-20T03:36:18;8.30;;;5.23;;
46407;SDS011;32110;45.724;21.276;2022-11-20T03:38:43;10.02;;;5.00;;
46407;SDS011;32110;45.724;21.276;2022-11-20T03:41:12;7.20;;;4.75;;
46407;SDS011;32110;45.724;21.276;2022-11-20T03:46:03;9.20;;;4.63;;
46407;SDS011;32110;45.724;21.276;2022-11-20T03:48:28;8.13;;;4.72;;
46407;SDS011;32110;45.724;21.276;2022-11-20T03:51:16;8.00;;;4.77;;
46407;SDS011;32110;45.724;21.276;2022-11-20T03:53:40;7.82;;;4.70;;
46407;SDS011;32110;45.724;21.276;2022-11-20T03:56:05;10.65;;;4.95;;
46407;SDS011;32110;45.724;21.276;2022-11-20T03:58:32;8.43;;;5.00;;
46407;SDS011;32110;45.724;21.276;2022-11-20T04:00:57;7.78;;;4.93;;
46407;SDS011;32110;45.724;21.276;2022-11-20T04:03:23;6.82;;;4.50;;
46407;SDS011;32110;45.724;21.276;2022-11-20T04:05:48;8.50;;;5.23;;
46407;SDS011;32110;45.724;21.276;2022-11-20T04:08:13;8.50;;;5.00;;
46407;SDS011;32110;45.724;21.276;2022-11-20T04:10:38;9.33;;;5.13;;
46407;SDS011;32110;45.724;21.276;2022-11-20T04:13:04;8.77;;;5.30;;
46407;SDS011;32110;45.724;21.276;2022-11-20T04:15:29;9.07;;;5.80;;
46407;SDS011;32110;45.724;21.276;2022-11-20T04:17:54;8.00;;;5.43;;
46407;SDS011;32110;45.724;21.276;2022-11-20T04:20:20;10.43;;;6.22;;
46407;SDS011;32110;45.724;21.276;2022-11-20T04:22:45;8.95;;;5.90;;
46407;SDS011;32110;45.724;21.276;2022-11-20T04:25:10;10.73;;;7.00;;
46407;SDS011;32110;45.724;21.276;2022-11-20T04:27:36;11.67;;;7.17;;
46407;SDS011;32110;45.724;21.276;2022-11-20T04:30:01;11.67;;;7.03;;
46407;SDS011;32110;45.724;21.276;2022-11-20T04:32:26;9.88;;;6.35;;
46407;SDS011;32110;45.724;21.276;2022-11-20T04:34:51;13.33;;;6.83;;
46407;SDS011;32110;45.724;21.276;2022-11-20T04:37:17;11.60;;;6.43;;
46407;SDS011;32110;45.724;21.276;2022-11-20T04:39:42;10.57;;;6.43;;
46407;SDS011;32110;45.724;21.276;2022-11-20T04:42:08;8.80;;;5.67;;
46407;SDS011;32110;45.724;21.276;2022-11-20T04:44:51;10.85;;;6.15;;
46407;SDS011;32110;45.724;21.276;2022-11-20T04:47:17;8.57;;;5.77;;
46407;SDS011;32110;45.724;21.276;2022-11-20T04:49:42;9.07;;;6.40;;
46407;SDS011;32110;45.724;21.276;2022-11-20T04:52:07;10.47;;;6.57;;
46407;SDS011;32110;45.724;21.276;2022-11-20T04:54:32;10.03;;;6.70;;
46407;SDS011;32110;45.724;21.276;2022-11-20T04:56:58;10.70;;;6.43;;
46407;SDS011;32110;45.724;21.276;2022-11-20T04:59:23;10.17;;;6.43;;
46407;SDS011;32110;45.724;21.276;2022-11-20T05:01:48;9.48;;;5.97;;
46407;SDS011;32110;45.724;21.276;2022-11-20T05:04:13;9.90;;;5.90;;
46407;SDS011;32110;45.724;21.276;2022-11-20T05:06:39;8.70;;;5.87;;
46407;SDS011;32110;45.724;21.276;2022-11-20T05:09:05;10.10;;;6.03;;
46407;SDS011;32110;45.724;21.276;2022-11-20T05:11:31;10.03;;;5.63;;
46407;SDS011;32110;45.724;21.276;2022-11-20T05:13:57;7.55;;;4.88;;
46407;SDS011;32110;45.724;21.276;2022-11-20T05:16:23;8.82;;;5.32;;
46407;SDS011;32110;45.724;21.276;2022-11-20T05:18:49;9.07;;;5.57;;
46407;SDS011;32110;45.724;21.276;2022-11-20T05:21:15;7.85;;;4.88;;
46407;SDS011;32110;45.724;21.276;2022-11-20T05:23:40;7.60;;;4.80;;
46407;SDS011;32110;45.724;21.276;2022-11-20T05:26:07;8.50;;;5.18;;
46407;SDS011;32110;45.724;21.276;2022-11-20T05:28:33;7.47;;;4.80;;
46407;SDS011;32110;45.724;21.276;2022-11-20T05:31:05;6.80;;;4.35;;
46407;SDS011;32110;45.724;21.276;2022-11-20T05:33:30;6.60;;;3.95;;
46407;SDS011;32110;45.724;21.276;2022-11-20T05:35:59;6.17;;;4.17;;
46407;SDS011;32110;45.724;21.276;2022-11-20T05:38:24;6.53;;;4.22;;
46407;SDS011;32110;45.724;21.276;2022-11-20T05:40:49;5.15;;;3.50;;
46407;SDS011;32110;45.724;21.276;2022-11-20T05:43:15;6.13;;;3.87;;
46407;SDS011;32110;45.724;21.276;2022-11-20T05:45:40;6.33;;;4.20;;
46407;SDS011;32110;45.724;21.276;2022-11-20T05:48:05;6.37;;;4.07;;
46407;SDS011;32110;45.724;21.276;2022-11-20T05:50:30;6.47;;;3.67;;
46407;SDS011;32110;45.724;21.276;2022-11-20T05:52:58;7.13;;;3.63;;
46407;SDS011;32110;45.724;21.276;2022-11-20T05:55:23;8.95;;;4.15;;
46407;SDS011;32110;45.724;21.276;2022-11-20T05:57:48;6.30;;;3.80;;
46407;SDS011;32110;45.724;21.276;2022-11-20T06:00:14;5.63;;;3.75;;
46407;SDS011;32110;45.724;21.276;2022-11-20T06:02:39;9.38;;;4.47;;
46407;SDS011;32110;45.724;21.276;2022-11-20T06:05:05;6.80;;;3.90;;
46407;SDS011;32110;45.724;21.276;2022-11-20T06:07:30;6.90;;;4.20;;
46407;SDS011;32110;45.724;21.276;2022-11-20T06:09:55;6.13;;;3.55;;
46407;SDS011;32110;45.724;21.276;2022-11-20T06:12:21;6.57;;;3.37;;
46407;SDS011;32110;45.724;21.276;2022-11-20T06:14:46;8.00;;;3.83;;
46407;SDS011;32110;45.724;21.276;2022-11-20T06:17:11;5.80;;;3.50;;
46407;SDS011;32110;45.724;21.276;2022-11-20T06:19:36;4.73;;;3.10;;
46407;SDS011;32110;45.724;21.276;2022-11-20T06:22:01;5.17;;;3.03;;
46407;SDS011;32110;45.724;21.276;2022-11-20T06:24:27;4.70;;;2.93;;
46407;SDS011;32110;45.724;21.276;2022-11-20T06:26:52;3.50;;;2.20;;
46407;SDS011;32110;45.724;21.276;2022-11-20T06:29:17;4.10;;;2.60;;
46407;SDS011;32110;45.724;21.276;2022-11-20T06:31:42;4.30;;;2.80;;
46407;SDS011;32110;45.724;21.276;2022-11-20T06:34:07;6.30;;;3.60;;
46407;SDS011;32110;45.724;21.276;2022-11-20T06:36:33;6.25;;;3.03;;
46407;SDS011;32110;45.724;21.276;2022-11-20T06:38:59;4.55;;;3.30;;
46407;SDS011;32110;45.724;21.276;2022-11-20T06:41:24;4.90;;;3.35;;
46407;SDS011;32110;45.724;21.276;2022-11-20T06:43:50;6.82;;;3.67;;
46407;SDS011;32110;45.724;21.276;2022-11-20T06:46:16;7.68;;;4.60;;
46407;SDS011;32110;45.724;21.276;2022-11-20T06:48:44;5.90;;;3.90;;
46407;SDS011;32110;45.724;21.276;2022-11-20T06:51:10;7.78;;;5.05;;
46407;SDS011;32110;45.724;21.276;2022-11-20T06:53:35;10.23;;;5.03;;
46407;SDS011;32110;45.724;21.276;2022-11-20T06:56:01;7.55;;;4.40;;
46407;SDS011;32110;45.724;21.276;2022-11-20T06:58:27;8.05;;;4.72;;
46407;SDS011;32110;45.724;21.276;2022-11-20T07:00:53;5.13;;;3.70;;
46407;SDS011;32110;45.724;21.276;2022-11-20T07:03:18;6.10;;;4.05;;
46407;SDS011;32110;45.724;21.276;2022-11-20T07:05:44;8.27;;;3.80;;
46407;SDS011;32110;45.724;21.276;2022-11-20T07:08:10;14.70;;;7.35;;
46407;SDS011;32110;45.724;21.276;2022-11-20T07:10:36;12.00;;;7.13;;
46407;SDS011;32110;45.724;21.276;2022-11-20T07:13:01;11.48;;;7.03;;
46407;SDS011;32110;45.724;21.276;2022-11-20T07:15:26;8.57;;;5.63;;
46407;SDS011;32110;45.724;21.276;2022-11-20T07:17:52;10.23;;;4.40;;
46407;SDS011;32110;45.724;21.276;2022-11-20T07:20:17;7.70;;;5.17;;
46407;SDS011;32110;45.724;21.276;2022-11-20T07:22:42;8.83;;;5.43;;
46407;SDS011;32110;45.724;21.276;2022-11-20T07:25:08;6.87;;;4.73;;
46407;SDS011;32110;45.724;21.276;2022-11-20T07:27:33;8.32;;;5.30;;
46407;SDS011;32110;45.724;21.276;2022-11-20T07:29:59;8.70;;;5.45;;
46407;SDS011;32110;45.724;21.276;2022-11-20T07:32:24;10.60;;;5.97;;
46407;SDS011;32110;45.724;21.276;2022-11-20T07:34:49;9.00;;;5.73;;
46407;SDS011;32110;45.724;21.276;2022-11-20T07:37:15;9.33;;;5.50;;
46407;SDS011;32110;45.724;21.276;2022-11-20T07:39:40;8.27;;;5.72;;
46407;SDS011;32110;45.724;21.276;2022-11-20T07:42:06;11.13;;;6.50;;
46407;SDS011;32110;45.724;21.276;2022-11-20T07:44:31;9.45;;;5.57;;
46407;SDS011;32110;45.724;21.276;2022-11-20T07:46:57;10.90;;;5.63;;
46407;SDS011;32110;45.724;21.276;2022-11-20T07:49:22;10.43;;;6.77;;
46407;SDS011;32110;45.724;21.276;2022-11-20T07:51:49;11.17;;;6.70;;
46407;SDS011;32110;45.724;21.276;2022-11-20T07:54:15;12.82;;;7.88;;
46407;SDS011;32110;45.724;21.276;2022-11-20T07:56:40;11.57;;;7.20;;
46407;SDS011;32110;45.724;21.276;2022-11-20T07:59:05;13.40;;;7.30;;
46407;SDS011;32110;45.724;21.276;2022-11-20T08:01:30;36.45;;;10.75;;
46407;SDS011;32110;45.724;21.276;2022-11-20T08:03:56;12.70;;;7.93;;
46407;SDS011;32110;45.724;21.276;2022-11-20T08:06:21;13.60;;;8.10;;
46407;SDS011;32110;45.724;21.276;2022-11-20T08:08:46;13.70;;;8.03;;
46407;SDS011;32110;45.724;21.276;2022-11-20T08:11:11;11.70;;;6.83;;
46407;SDS011;32110;45.724;21.276;2022-11-20T08:13:55;12.15;;;6.85;;
46407;SDS011;32110;45.724;21.276;2022-11-20T08:16:39;11.93;;;7.65;;
46407;SDS011;32110;45.724;21.276;2022-11-20T08:19:05;14.80;;;8.13;;
46407;SDS011;32110;45.724;21.276;2022-11-20T08:21:30;13.48;;;8.23;;
46407;SDS011;32110;45.724;21.276;2022-11-20T08:23:56;12.02;;;7.32;;
46407;SDS011;32110;45.724;21.276;2022-11-20T08:26:22;12.88;;;8.07;;
46407;SDS011;32110;45.724;21.276;2022-11-20T08:28:48;13.63;;;7.65;;
46407;SDS011;32110;45.724;21.276;2022-11-20T08:31:13;13.98;;;7.53;;
46407;SDS011;32110;45.724;21.276;2022-11-20T08:33:38;15.60;;;8.90;;
46407;SDS011;32110;45.724;21.276;2022-11-20T08:36:04;13.67;;;8.67;;
46407;SDS011;32110;45.724;21.276;2022-11-20T08:38:30;14.10;;;8.40;;
46407;SDS011;32110;45.724;21.276;2022-11-20T08:40:58;17.08;;;8.77;;
46407;SDS011;32110;45.724;21.276;2022-11-20T08:43:42;14.50;;;8.38;;
46407;SDS011;32110;45.724;21.276;2022-11-20T08:46:07;16.03;;;9.37;;
46407;SDS011;32110;45.724;21.276;2022-11-20T08:48:33;16.70;;;9.37;;
46407;SDS011;32110;45.724;21.276;2022-11-20T08:50:58;16.37;;;9.30;;
46407;SDS011;32110;45.724;21.276;2022-11-20T08:53:24;16.00;;;10.15;;
46407;SDS011;32110;45.724;21.276;2022-11-20T08:55:49;16.73;;;10.57;;
46407;SDS011;32110;45.724;21.276;2022-11-20T08:58:14;20.37;;;11.07;;
46407;SDS011;32110;45.724;21.276;2022-11-20T09:00:40;20.40;;;11.00;;
46407;SDS011;32110;45.724;21.276;2022-11-20T09:03:05;20.03;;;10.50;;
46407;SDS011;32110;45.724;21.276;2022-11-20T09:05:30;20.80;;;11.07;;
46407;SDS011;32110;45.724;21.276;2022-11-20T09:07:56;18.07;;;10.50;;
46407;SDS011;32110;45.724;21.276;2022-11-20T09:10:21;22.10;;;11.85;;
46407;SDS011;32110;45.724;21.276;2022-11-20T09:12:48;19.23;;;10.97;;
46407;SDS011;32110;45.724;21.276;2022-11-20T09:15:13;22.25;;;10.38;;
46407;SDS011;32110;45.724;21.276;2022-11-20T09:17:38;20.17;;;10.27;;
46407;SDS011;32110;45.724;21.276;2022-11-20T09:20:04;24.27;;;12.20;;
46407;SDS011;32110;45.724;21.276;2022-11-20T09:22:29;23.05;;;11.02;;
46407;SDS011;32110;45.724;21.276;2022-11-20T09:24:55;18.87;;;10.43;;
46407;SDS011;32110;45.724;21.276;2022-11-20T09:27:20;21.90;;;10.87;;
46407;SDS011;32110;45.724;21.276;2022-11-20T09:29:46;22.83;;;11.27;;
46407;SDS011;32110;45.724;21.276;2022-11-20T09:32:11;23.60;;;12.23;;
46407;SDS011;32110;45.724;21.276;2022-11-20T09:34:36;20.17;;;11.40;;
46407;SDS011;32110;45.724;21.276;2022-11-20T09:37:02;18.48;;;11.02;;
46407;SDS011;32110;45.724;21.276;2022-11-20T09:39:27;23.20;;;11.30;;
46407;SDS011;32110;45.724;21.276;2022-11-20T09:46:53;20.70;;;11.23;;
46407;SDS011;32110;45.724;21.276;2022-11-20T09:49:35;25.13;;;11.95;;
46407;SDS011;32110;45.724;21.276;2022-11-20T09:52:16;18.25;;;11.00;;
46407;SDS011;32110;45.724;21.276;2022-11-20T09:54:44;20.55;;;10.85;;
46407;SDS011;32110;45.724;21.276;2022-11-20T09:57:20;20.52;;;10.95;;
46407;SDS011;32110;45.724;21.276;2022-11-20T09:59:48;17.58;;;11.00;;
46407;SDS011;32110;45.724;21.276;2022-11-20T10:04:57;17.08;;;9.48;;
46407;SDS011;32110;45.724;21.276;2022-11-20T10:07:26;16.33;;;8.57;;
46407;SDS011;32110;45.724;21.276;2022-11-20T10:09:55;15.43;;;8.40;;
46407;SDS011;32110;45.724;21.276;2022-11-20T10:25:17;13.73;;;8.65;;
46407;SDS011;32110;45.724;21.276;2022-11-20T10:27:53;18.80;;;10.68;;
46407;SDS011;32110;45.724;21.276;2022-11-20T10:30:21;14.55;;;9.25;;
46407;SDS011;32110;45.724;21.276;2022-11-20T10:38:23;14.57;;;8.73;;
46407;SDS011;32110;45.724;21.276;2022-11-20T10:40:53;15.55;;;7.97;;
46407;SDS011;32110;45.724;21.276;2022-11-20T10:43:39;14.98;;;9.32;;
46407;SDS011;32110;45.724;21.276;2022-11-20T10:46:06;17.02;;;9.98;;
46407;SDS011;32110;45.724;21.276;2022-11-20T10:48:33;15.70;;;10.25;;
46407;SDS011;32110;45.724;21.276;2022-11-20T10:53:45;21.90;;;12.60;;
46407;SDS011;32110;45.724;21.276;2022-11-20T11:01:23;25.65;;;13.35;;
46407;SDS011;32110;45.724;21.276;2022-11-20T11:03:51;23.70;;;13.82;;
46407;SDS011;32110;45.724;21.276;2022-11-20T11:06:36;19.70;;;11.98;;
46407;SDS011;32110;45.724;21.276;2022-11-20T11:09:15;24.80;;;13.50;;
46407;SDS011;32110;45.724;21.276;2022-11-20T11:11:41;20.25;;;12.07;;
46407;SDS011;32110;45.724;21.276;2022-11-20T11:14:10;23.58;;;14.55;;
46407;SDS011;32110;45.724;21.276;2022-11-20T11:16:40;18.58;;;10.98;;
46407;SDS011;32110;45.724;21.276;2022-11-20T11:19:13;18.83;;;11.93;;
46407;SDS011;32110;45.724;21.276;2022-11-20T11:21:38;19.35;;;11.98;;
46407;SDS011;32110;45.724;21.276;2022-11-20T11:24:18;28.27;;;16.27;;
46407;SDS011;32110;45.724;21.276;2022-11-20T11:26:51;24.83;;;13.93;;
46407;SDS011;32110;45.724;21.276;2022-11-20T11:29:19;21.08;;;11.20;;
46407;SDS011;32110;45.724;21.276;2022-11-20T11:31:45;20.17;;;11.00;;
46407;SDS011;32110;45.724;21.276;2022-11-20T11:34:14;24.67;;;13.00;;
46407;SDS011;32110;45.724;21.276;2022-11-20T11:36:39;25.58;;;13.80;;
46407;SDS011;32110;45.724;21.276;2022-11-20T11:39:05;26.35;;;14.50;;
46407;SDS011;32110;45.724;21.276;2022-11-20T11:41:32;23.45;;;12.93;;
46407;SDS011;32110;45.724;21.276;2022-11-20T11:47:02;23.65;;;12.70;;
46407;SDS011;32110;45.724;21.276;2022-11-20T11:49:28;25.55;;;13.25;;
46407;SDS011;32110;45.724;21.276;2022-11-20T11:52:13;30.33;;;14.40;;
46407;SDS011;32110;45.724;21.276;2022-11-20T11:57:15;28.92;;;15.45;;
46407;SDS011;32110;45.724;21.276;2022-11-20T12:04:59;27.97;;;14.37;;
46407;SDS011;32110;45.724;21.276;2022-11-20T12:09:55;28.58;;;14.85;;
46407;SDS011;32110;45.724;21.276;2022-11-20T12:12:26;27.95;;;15.60;;
46407;SDS011;32110;45.724;21.276;2022-11-20T12:14:53;24.85;;;13.27;;
46407;SDS011;32110;45.724;21.276;2022-11-20T12:17:20;20.38;;;11.63;;
46407;SDS011;32110;45.724;21.276;2022-11-20T12:19:45;25.37;;;12.80;;
46407;SDS011;32110;45.724;21.276;2022-11-20T12:30:21;19.00;;;10.85;;
46407;SDS011;32110;45.724;21.276;2022-11-20T12:37:48;21.40;;;12.88;;
46407;SDS011;32110;45.724;21.276;2022-11-20T13:01:25;24.77;;;14.80;;
46407;SDS011;32110;45.724;21.276;2022-11-20T13:06:40;38.75;;;18.17;;
46407;SDS011;32110;45.724;21.276;2022-11-20T13:09:08;29.70;;;16.90;;
46407;SDS011;32110;45.724;21.276;2022-11-20T13:11:47;33.92;;;19.20;;
46407;SDS011;32110;45.724;21.276;2022-11-20T13:19:31;33.83;;;20.60;;
46407;SDS011;32110;45.724;21.276;2022-11-20T13:21:56;36.83;;;21.88;;
46407;SDS011;32110;45.724;21.276;2022-11-20T13:24:23;43.17;;;22.85;;
46407;SDS011;32110;45.724;21.276;2022-11-20T13:29:30;27.65;;;15.85;;
46407;SDS011;32110;45.724;21.276;2022-11-20T13:34:57;35.92;;;18.60;;
46407;SDS011;32110;45.724;21.276;2022-11-20T13:42:45;30.90;;;15.73;;
46407;SDS011;32110;45.724;21.276;2022-11-20T13:45:21;30.08;;;17.05;;
46407;SDS011;32110;45.724;21.276;2022-11-20T13:47:51;27.20;;;16.50;;
46407;SDS011;32110;45.724;21.276;2022-11-20T13:50:17;27.00;;;15.02;;
46407;SDS011;32110;45.724;21.276;2022-11-20T14:02:39;29.80;;;17.40;;
46407;SDS011;32110;45.724;21.276;2022-11-20T14:05:04;31.58;;;17.13;;
46407;SDS011;32110;45.724;21.276;2022-11-20T14:07:35;27.58;;;15.20;;
46407;SDS011;32110;45.724;21.276;2022-11-20T14:10:01;34.38;;;18.23;;
46407;SDS011;32110;45.724;21.276;2022-11-20T14:12:30;33.78;;;17.63;;
46407;SDS011;32110;45.724;21.276;2022-11-20T14:19:50;31.50;;;17.27;;
46407;SDS011;32110;45.724;21.276;2022-11-20T14:22:23;27.98;;;15.82;;
46407;SDS011;32110;45.724;21.276;2022-11-20T14:24:59;36.47;;;17.65;;
46407;SDS011;32110;45.724;21.276;2022-11-20T14:27:25;32.67;;;17.75;;
46407;SDS011;32110;45.724;21.276;2022-11-20T14:29:50;33.85;;;18.00;;
46407;SDS011;32110;45.724;21.276;2022-11-20T14:32:17;40.25;;;20.33;;
46407;SDS011;32110;45.724;21.276;2022-11-20T14:34:43;40.70;;;20.08;;
46407;SDS011;32110;45.724;21.276;2022-11-20T14:37:12;42.58;;;22.27;;
46407;SDS011;32110;45.724;21.276;2022-11-20T14:39:42;42.55;;;20.83;;
46407;SDS011;32110;45.724;21.276;2022-11-20T14:42:17;41.88;;;20.50;;
46407;SDS011;32110;45.724;21.276;2022-11-20T14:44:43;42.13;;;21.77;;
46407;SDS011;32110;45.724;21.276;2022-11-20T14:47:10;44.63;;;24.13;;
46407;SDS011;32110;45.724;21.276;2022-11-20T14:49:36;43.42;;;23.65;;
46407;SDS011;32110;45.724;21.276;2022-11-20T14:52:03;37.78;;;19.58;;
46407;SDS011;32110;45.724;21.276;2022-11-20T14:54:34;38.88;;;21.25;;
46407;SDS011;32110;45.724;21.276;2022-11-20T14:57:22;45.97;;;24.45;;
46407;SDS011;32110;45.724;21.276;2022-11-20T14:59:48;638.13;;;126.20;;
46407;SDS011;32110;45.724;21.276;2022-11-20T15:02:13;42.60;;;22.90;;
46407;SDS011;32110;45.724;21.276;2022-11-20T15:04:46;40.17;;;21.58;;
46407;SDS011;32110;45.724;21.276;2022-11-20T15:07:11;42.88;;;23.45;;
46407;SDS011;32110;45.724;21.276;2022-11-20T15:09:37;45.75;;;22.52;;
46407;SDS011;32110;45.724;21.276;2022-11-20T15:12:03;35.25;;;19.35;;
46407;SDS011;32110;45.724;21.276;2022-11-20T15:14:29;41.22;;;20.58;;
46407;SDS011;32110;45.724;21.276;2022-11-20T15:16:55;35.03;;;18.35;;
46407;SDS011;32110;45.724;21.276;2022-11-20T15:19:21;35.92;;;18.92;;
46407;SDS011;32110;45.724;21.276;2022-11-20T15:21:46;37.20;;;19.70;;
46407;SDS011;32110;45.724;21.276;2022-11-20T15:24:12;45.10;;;22.83;;
46407;SDS011;32110;45.724;21.276;2022-11-20T15:26:37;49.07;;;23.63;;
46407;SDS011;32110;45.724;21.276;2022-11-20T15:29:04;50.13;;;23.80;;
46407;SDS011;32110;45.724;21.276;2022-11-20T15:31:29;49.53;;;23.20;;
46407;SDS011;32110;45.724;21.276;2022-11-20T15:33:54;54.57;;;25.53;;
46407;SDS011;32110;45.724;21.276;2022-11-20T15:36:19;43.83;;;22.77;;
46407;SDS011;32110;45.724;21.276;2022-11-20T15:38:45;44.33;;;20.83;;
46407;SDS011;32110;45.724;21.276;2022-11-20T15:41:10;42.50;;;21.60;;
46407;SDS011;32110;45.724;21.276;2022-11-20T15:43:35;38.88;;;20.52;;
46407;SDS011;32110;45.724;21.276;2022-11-20T15:46:11;41.00;;;20.30;;
46407;SDS011;32110;45.724;21.276;2022-11-20T15:48:38;45.28;;;22.08;;
46407;SDS011;32110;45.724;21.276;2022-11-20T15:53:39;35.75;;;18.45;;
46407;SDS011;32110;45.724;21.276;2022-11-20T15:56:05;39.95;;;19.70;;
46407;SDS011;32110;45.724;21.276;2022-11-20T15:58:30;44.88;;;21.63;;
46407;SDS011;32110;45.724;21.276;2022-11-20T16:00:55;51.10;;;23.53;;
46407;SDS011;32110;45.724;21.276;2022-11-20T16:03:21;43.92;;;22.13;;
46407;SDS011;32110;45.724;21.276;2022-11-20T16:05:46;38.75;;;20.50;;
46407;SDS011;32110;45.724;21.276;2022-11-20T16:08:11;41.40;;;19.90;;
46407;SDS011;32110;45.724;21.276;2022-11-20T16:10:37;40.00;;;21.08;;
46407;SDS011;32110;45.724;21.276;2022-11-20T16:13:03;41.08;;;22.85;;
46407;SDS011;32110;45.724;21.276;2022-11-20T16:15:50;52.70;;;25.08;;
46407;SDS011;32110;45.724;21.276;2022-11-20T16:18:19;46.60;;;23.55;;
46407;SDS011;32110;45.724;21.276;2022-11-20T16:20:45;40.55;;;22.02;;
46407;SDS011;32110;45.724;21.276;2022-11-20T16:23:11;38.70;;;21.27;;
46407;SDS011;32110;45.724;21.276;2022-11-20T16:25:37;45.78;;;23.33;;
46407;SDS011;32110;45.724;21.276;2022-11-20T16:28:02;44.88;;;23.50;;